createdAt,value
2018-10-12T00:20:52.902Z,101680.94
2018-10-12T01:12:12.178Z,101677.70
2018-10-12T02:26:41.966Z,101713.22
2018-10-12T02:29:10.205Z,101722.98
2018-10-12T02:31:38.465Z,101724.22
2018-10-12T02:34:06.869Z,101736.67
2018-10-12T02:36:35.158Z,101740.59
2018-10-12T02:39:04.126Z,101742.43
2018-10-12T02:41:32.373Z,101738.34
2018-10-12T02:44:00.629Z,101743.66
2018-10-12T02:46:28.904Z,101740.18
2018-10-12T02:48:57.198Z,101736.73
2018-10-12T02:51:25.455Z,101730.91
2018-10-12T02:53:53.815Z,101735.85
2018-10-12T02:56:23.158Z,101741.37
2018-10-12T02:58:52.108Z,101744.09
2018-10-12T03:01:21.234Z,101744.53
2018-10-12T03:03:49.782Z,101740.48
2018-10-12T03:06:18.021Z,101727.55
2018-10-12T03:08:46.616Z,101730.05
2018-10-12T03:11:15.930Z,101730.09
2018-10-12T03:13:44.359Z,101737.99
2018-10-12T03:16:13.188Z,101744.98
2018-10-12T03:18:42.373Z,101747.26
2018-10-12T03:21:10.692Z,101756.49
2018-10-12T03:23:39.206Z,101750.73
2018-10-12T03:26:07.491Z,101747.64
2018-10-12T04:34:11.269Z,101787.75
2018-10-12T04:36:39.571Z,101788.96
2018-10-12T04:39:18.925Z,101794.19
2018-10-12T04:41:47.221Z,101798.05
2018-10-12T04:44:15.512Z,101802.40
2018-10-12T04:46:44.357Z,101792.84
2018-10-12T04:49:13.852Z,101800.27
2018-10-12T04:51:52.044Z,101802.37
2018-10-12T04:54:20.939Z,101803.69
2018-10-12T04:56:49.492Z,101797.29
2018-10-12T04:59:17.841Z,101793.28
2018-10-12T05:01:46.117Z,101803.55
2018-10-12T05:04:14.377Z,101806.20
2018-10-12T05:06:42.618Z,101806.42
2018-10-12T05:09:11.674Z,101820.25
2018-10-12T05:11:40.125Z,101826.53
2018-10-12T05:14:09.707Z,101829.44
2018-10-12T05:16:38.051Z,101830.11
2018-10-12T05:19:06.633Z,101824.21
2018-10-12T05:21:34.951Z,101832.92
2018-10-12T05:24:03.448Z,101822.98
2018-10-12T05:26:32.341Z,101825.44
2018-10-12T05:29:00.652Z,101833.48
2018-10-12T05:31:29.000Z,101831.02
2018-10-12T05:33:57.350Z,101831.59
2018-10-12T05:36:25.631Z,101835.63
2018-10-12T05:38:53.907Z,101834.74
2018-10-12T05:41:22.188Z,101837.36
2018-10-12T05:43:50.494Z,101849.36
2018-10-12T05:46:18.783Z,101847.41
2018-10-12T05:48:58.288Z,101847.37
2018-10-12T05:51:26.516Z,101854.48
2018-10-12T05:53:54.849Z,101864.42
2018-10-12T05:56:28.576Z,101866.32
2018-10-12T05:58:56.867Z,101863.40
2018-10-12T06:01:25.206Z,101864.95
2018-10-12T06:03:53.401Z,101852.92
2018-10-12T06:06:21.673Z,101851.28
2018-10-12T06:08:49.933Z,101854.03
2018-10-12T06:11:18.257Z,101851.36
2018-10-12T06:13:46.457Z,101846.97
2018-10-12T06:16:14.850Z,101844.36
2018-10-12T06:18:43.142Z,101842.66
2018-10-12T07:12:47.737Z,101933.09
2018-10-12T07:15:16.076Z,101942.06
2018-10-12T07:17:44.361Z,101955.98
2018-10-12T07:29:00.331Z,101965.62
2018-10-12T07:31:28.610Z,101952.23
2018-10-12T07:33:56.890Z,101953.69
2018-10-12T07:36:25.183Z,101948.34
2018-10-12T07:38:53.450Z,101947.56
2018-10-12T07:41:21.736Z,101954.59
2018-10-12T07:43:49.977Z,101960.14
2018-10-12T07:46:18.266Z,101960.27
2018-10-12T07:48:46.533Z,101956.77
2018-10-12T07:51:14.769Z,101961.70
2018-10-12T07:53:43.017Z,101974.23
2018-10-12T07:56:11.257Z,101980.08
2018-10-12T07:58:39.509Z,101977.03
2018-10-12T08:01:07.828Z,101972.03
2018-10-12T08:03:36.125Z,101983.22
2018-10-12T08:06:04.443Z,101989.87
2018-10-12T08:08:32.779Z,101995.96
2018-10-12T08:11:01.073Z,101993.39
2018-10-12T08:16:22.102Z,101988.28
2018-10-12T08:18:50.389Z,101997.78
2018-10-12T08:21:41.112Z,101984.84
2018-10-12T10:21:38.633Z,102009.60
2018-10-12T11:12:47.014Z,102011.91
2018-10-12T11:21:00.920Z,102025.05
2018-10-12T11:26:39.954Z,102023.52
2018-10-12T11:29:08.213Z,102038.72
2018-10-12T11:31:36.458Z,102027.47
2018-10-12T11:34:04.756Z,102032.78
2018-10-12T11:36:33.006Z,102040.31
2018-10-12T11:39:01.268Z,102030.48
2018-10-12T11:41:29.528Z,102028.02
2018-10-12T11:43:57.801Z,102021.66
2018-10-12T11:46:26.051Z,102022.88
2018-10-12T11:48:54.303Z,102016.46
2018-10-12T11:51:22.577Z,102007.52
2018-10-12T11:53:50.853Z,102011.16
2018-10-12T11:56:19.142Z,102006.50
2018-10-12T11:58:47.390Z,102002.48
2018-10-12T12:01:15.656Z,102009.33
2018-10-12T12:03:43.962Z,102005.08
2018-10-12T12:06:12.210Z,102004.33
2018-10-12T12:08:40.470Z,102007.59
2018-10-12T12:11:08.781Z,102006.90
2018-10-12T12:13:51.820Z,102010.35
2018-10-12T12:16:20.041Z,102010.91
2018-10-12T12:21:41.440Z,102007.88
2018-10-12T13:21:55.842Z,102028.52
2018-10-12T14:12:58.425Z,102047.23
2018-10-12T14:15:33.186Z,102048.66
2018-10-12T14:18:01.570Z,102041.02
2018-10-12T14:23:22.035Z,102038.19
2018-10-12T14:28:43.097Z,102036.22
2018-10-12T14:31:11.362Z,102040.55
2018-10-12T14:33:39.606Z,102038.13
2018-10-12T14:36:07.865Z,102033.25
2018-10-12T14:38:36.125Z,102034.63
2018-10-12T14:41:04.382Z,102041.75
2018-10-12T14:43:32.650Z,102038.43
2018-10-12T14:46:00.980Z,102037.50
2018-10-12T14:48:29.233Z,102042.54
2018-10-12T14:50:57.477Z,102037.11
2018-10-12T14:53:25.732Z,102043.73
2018-10-12T14:55:53.986Z,102047.59
2018-10-12T14:58:22.291Z,102049.95
2018-10-12T15:00:50.545Z,102041.35
2018-10-12T15:03:18.779Z,102047.30
2018-10-12T15:05:47.096Z,102047.70
2018-10-12T15:08:15.347Z,102039.70
2018-10-12T15:10:43.622Z,102048.64
2018-10-12T15:16:04.781Z,102059.95
2018-10-12T15:18:33.044Z,102065.69
2018-10-12T15:21:01.335Z,102063.61
2018-10-12T15:23:30.554Z,102068.86
2018-10-12T15:25:58.814Z,102075.13
2018-10-12T15:28:27.056Z,102074.37
2018-10-12T15:30:55.313Z,102082.75
2018-10-12T15:33:23.569Z,102087.39
2018-10-12T15:35:51.810Z,102091.27
2018-10-12T15:38:20.072Z,102094.40
2018-10-12T15:40:48.341Z,102099.23
2018-10-12T15:43:16.682Z,102103.60
2018-10-12T15:45:44.899Z,102094.80
2018-10-12T15:48:13.154Z,102092.28
2018-10-12T15:50:41.411Z,102100.26
2018-10-12T15:53:09.650Z,102099.08
2018-10-12T15:55:37.946Z,102104.33
2018-10-12T15:58:06.195Z,102104.70
2018-10-12T16:00:34.449Z,102104.39
2018-10-12T16:03:02.759Z,102102.59
2018-10-12T16:05:31.046Z,102107.70
2018-10-12T16:07:59.769Z,102110.98
2018-10-12T16:10:28.137Z,102111.91
2018-10-12T16:13:18.721Z,102118.83
2018-10-12T16:24:27.445Z,102138.47
2018-10-12T17:12:27.111Z,102172.28
2018-10-12T18:21:22.237Z,102198.55
2018-10-12T18:27:02.399Z,102198.52
2018-10-12T19:12:14.538Z,102222.86
2018-10-12T19:20:37.884Z,102219.31
2018-10-12T19:23:06.278Z,102219.33
2018-10-12T19:25:46.457Z,102222.93
2018-10-12T20:13:54.341Z,102205.89
2018-10-12T20:16:24.656Z,102207.72
2018-10-12T20:18:52.918Z,102209.94
2018-10-12T20:21:21.220Z,102212.20
2018-10-12T20:23:49.529Z,102204.10
2018-10-12T20:26:17.820Z,102205.45
2018-10-12T20:28:46.054Z,102209.48
2018-10-12T20:31:14.303Z,102211.70
2018-10-12T20:33:42.569Z,102213.05
2018-10-12T20:36:10.821Z,102221.09
2018-10-12T20:38:39.097Z,102220.63
2018-10-12T20:41:07.354Z,102218.83
2018-10-12T20:43:35.606Z,102221.05
2018-10-12T20:46:03.859Z,102223.23
2018-10-12T20:48:32.105Z,102229.05
2018-10-12T20:51:00.382Z,102229.48
2018-10-12T20:53:28.634Z,102226.80
2018-10-12T20:55:56.895Z,102224.55
2018-10-12T20:58:25.144Z,102237.05
2018-10-12T21:00:53.412Z,102233.48
2018-10-12T21:03:21.674Z,102237.52
2018-10-12T21:05:49.950Z,102232.54
2018-10-12T21:08:18.227Z,102235.23
2018-10-12T21:10:46.505Z,102232.50
2018-10-12T21:22:31.826Z,102234.71
2018-10-12T21:25:12.014Z,102231.12
2018-10-12T21:30:32.858Z,102234.23
2018-10-12T21:33:01.115Z,102232.42
2018-10-12T21:35:29.329Z,102232.42
2018-10-12T21:37:57.605Z,102227.05
2018-10-12T21:40:25.893Z,102236.91
2018-10-12T21:42:54.118Z,102230.59
2018-10-12T21:45:22.353Z,102229.77
2018-10-12T21:47:50.601Z,102221.72
2018-10-12T21:50:19.099Z,102215.48
2018-10-12T21:52:47.356Z,102219.46
2018-10-12T21:55:15.601Z,102216.34
2018-10-12T21:57:43.874Z,102216.78
2018-10-12T22:00:12.207Z,102220.34
2018-10-12T22:02:40.462Z,102215.39
2018-10-12T22:05:08.805Z,102224.74
2018-10-12T22:07:37.032Z,102225.12
2018-10-12T22:10:05.301Z,102222.87
2018-10-12T22:12:33.581Z,102220.23
2018-10-12T22:15:01.854Z,102215.63
2018-10-12T22:17:30.136Z,102210.73
2018-10-12T22:19:58.411Z,102208.92
2018-10-12T22:22:26.663Z,102206.22
2018-10-12T22:24:54.900Z,102207.13
2018-10-12T22:27:23.160Z,102209.24
2018-10-12T22:29:51.413Z,102209.67
2018-10-12T22:32:19.691Z,102213.63
2018-10-12T22:34:47.973Z,102212.71
2018-10-12T22:37:16.270Z,102209.52
2018-10-12T22:39:44.546Z,102217.56
2018-10-12T22:42:13.976Z,102218.86
2018-10-12T22:44:42.315Z,102225.61
2018-10-12T22:47:10.862Z,102221.13
2018-10-12T22:49:39.322Z,102221.19
2018-10-12T22:52:07.812Z,102222.51
2018-10-12T22:54:36.125Z,102220.69
2018-10-12T22:57:04.390Z,102218.42
2018-10-12T22:59:32.697Z,102224.98
2018-10-12T23:02:00.956Z,102226.66
2018-10-12T23:04:29.235Z,102220.02
2018-10-12T23:06:57.509Z,102220.89
2018-10-12T23:09:25.768Z,102217.17
2018-10-12T23:11:53.980Z,102215.36
2018-10-12T23:20:17.364Z,102213.52
2018-10-12T23:22:55.606Z,102206.41
